NOZ4EP ENGM-ENBR
Flight info
| Callsign | NOZ4EP |
|---|---|
| Flight time | 0h 37m |
| Altitude | 28000 |
| Route | ATLAP DCT AGEKU DCT PESUR |
| Aircraft | B738/M-SDE2E3FGHIRWXY/LB1 |
Departure
| Time | 2026-05-06 17:29 |
|---|---|
| Airport | Oslo-Gardermoen International Airport (ENGM) |
Arrival
| Time | 2026-05-06 18:06 |
|---|---|
| Airport | Bergen Airport, Flesland (ENBR) |
| Time | Latitude | Longitude | Altitude | Speed | Heading |
|---|---|---|---|---|---|
| 2026-05-06 17:17 | 60.19392 | 11.10650 | 681 ft | 1 kts | 196° |
| 2026-05-06 17:21 | 60.19402 | 11.10655 | 681 ft | 4 kts | 196° |
| 2026-05-06 17:21 | 60.19428 | 11.10670 | 681 ft | 4 kts | 196° |
| 2026-05-06 17:21 | 60.19454 | 11.10684 | 679 ft | 4 kts | 197° |
| 2026-05-06 17:22 | 60.19474 | 11.10696 | 678 ft | 4 kts | 186° |
| 2026-05-06 17:22 | 60.19496 | 11.10688 | 679 ft | 4 kts | 126° |
| 2026-05-06 17:22 | 60.19500 | 11.10676 | 678 ft | 3 kts | 107° |
| 2026-05-06 17:22 | 60.19492 | 11.10727 | 679 ft | 4 kts | 107° |
| 2026-05-06 17:23 | 60.19487 | 11.10760 | 681 ft | 0 kts | 107° |
| 2026-05-06 17:25 | 60.19487 | 11.10761 | 681 ft | 0 kts | 107° |
| 2026-05-06 17:25 | 60.19482 | 11.10790 | 681 ft | 4 kts | 105° |
| 2026-05-06 17:25 | 60.19471 | 11.10879 | 682 ft | 8 kts | 105° |
| 2026-05-06 17:25 | 60.19450 | 11.11019 | 682 ft | 13 kts | 106° |
| 2026-05-06 17:26 | 60.19423 | 11.11211 | 683 ft | 15 kts | 102° |
| 2026-05-06 17:26 | 60.19496 | 11.11323 | 683 ft | 14 kts | 16° |
| 2026-05-06 17:26 | 60.19589 | 11.11376 | 681 ft | 14 kts | 17° |
| 2026-05-06 17:26 | 60.19676 | 11.11428 | 684 ft | 13 kts | 17° |
| 2026-05-06 17:27 | 60.19731 | 11.11551 | 685 ft | 13 kts | 84° |
| 2026-05-06 17:27 | 60.19711 | 11.11717 | 684 ft | 12 kts | 108° |
| 2026-05-06 17:27 | 60.19670 | 11.11851 | 685 ft | 11 kts | 139° |
| 2026-05-06 17:27 | 60.19621 | 11.11938 | 689 ft | 5 kts | 146° |
| 2026-05-06 17:28 | 60.19582 | 11.11937 | 689 ft | 7 kts | 195° |
| 2026-05-06 17:28 | 60.19325 | 11.11795 | 686 ft | 76 kts | 196° |
| 2026-05-06 17:28 | 60.18591 | 11.11363 | 680 ft | 142 kts | 195° |
| 2026-05-06 17:28 | 60.17534 | 11.10745 | 999 ft | 167 kts | 199° |
| 2026-05-06 17:29 | 60.16385 | 11.10083 | 1790 ft | 175 kts | 198° |
| 2026-05-06 17:29 | 60.15204 | 11.09407 | 2677 ft | 179 kts | 198° |
| 2026-05-06 17:29 | 60.13925 | 11.08667 | 3182 ft | 203 kts | 198° |
| 2026-05-06 17:29 | 60.12534 | 11.07852 | 3643 ft | 218 kts | 198° |
| 2026-05-06 17:30 | 60.10987 | 11.07305 | 4081 ft | 237 kts | 184° |
| 2026-05-06 17:30 | 60.09252 | 11.07260 | 4467 ft | 259 kts | 184° |
| 2026-05-06 17:30 | 60.07435 | 11.06999 | 5366 ft | 262 kts | 187° |
| 2026-05-06 17:30 | 60.05656 | 11.05983 | 6031 ft | 274 kts | 214° |
| 2026-05-06 17:31 | 60.04350 | 11.03314 | 7121 ft | 265 kts | 238° |
| 2026-05-06 17:31 | 60.03635 | 10.99976 | 8158 ft | 265 kts | 260° |
| 2026-05-06 17:31 | 60.03638 | 10.96273 | 9049 ft | 266 kts | 275° |
| 2026-05-06 17:31 | 60.03893 | 10.92605 | 9991 ft | 269 kts | 277° |
| 2026-05-06 17:32 | 60.04198 | 10.88798 | 10428 ft | 289 kts | 278° |
| 2026-05-06 17:32 | 60.04531 | 10.84655 | 10647 ft | 314 kts | 277° |
| 2026-05-06 17:32 | 60.04877 | 10.80258 | 11255 ft | 323 kts | 277° |
| 2026-05-06 17:32 | 60.05215 | 10.75821 | 12208 ft | 322 kts | 277° |
| 2026-05-06 17:33 | 60.05543 | 10.71404 | 13190 ft | 321 kts | 276° |
| 2026-05-06 17:33 | 60.05858 | 10.67043 | 14040 ft | 322 kts | 276° |
| 2026-05-06 17:33 | 60.06182 | 10.62476 | 14255 ft | 342 kts | 276° |
| 2026-05-06 17:33 | 60.06519 | 10.57652 | 14613 ft | 354 kts | 276° |
| 2026-05-06 17:34 | 60.06858 | 10.52761 | 15314 ft | 356 kts | 276° |
| 2026-05-06 17:34 | 60.07197 | 10.47838 | 16071 ft | 357 kts | 275° |
| 2026-05-06 17:34 | 60.07531 | 10.42921 | 16829 ft | 357 kts | 275° |
| 2026-05-06 17:34 | 60.07864 | 10.37980 | 17565 ft | 358 kts | 275° |
| 2026-05-06 17:35 | 60.08195 | 10.33025 | 18273 ft | 360 kts | 275° |
| 2026-05-06 17:35 | 60.08525 | 10.28052 | 18880 ft | 361 kts | 275° |
| 2026-05-06 17:35 | 60.08854 | 10.23051 | 19470 ft | 363 kts | 275° |
| 2026-05-06 17:36 | 60.09512 | 10.12956 | 20604 ft | 367 kts | 274° |
| 2026-05-06 17:36 | 60.09840 | 10.07882 | 21181 ft | 368 kts | 274° |
| 2026-05-06 17:36 | 60.10168 | 10.02769 | 21724 ft | 370 kts | 274° |
| 2026-05-06 17:36 | 60.10496 | 9.97627 | 22218 ft | 373 kts | 274° |
| 2026-05-06 17:37 | 60.10824 | 9.92458 | 22781 ft | 374 kts | 274° |
| 2026-05-06 17:37 | 60.11150 | 9.87274 | 23324 ft | 375 kts | 274° |
| 2026-05-06 17:37 | 60.11472 | 9.82134 | 23775 ft | 377 kts | 274° |
| 2026-05-06 17:37 | 60.11798 | 9.76905 | 24190 ft | 379 kts | 274° |
| 2026-05-06 17:38 | 60.12123 | 9.71645 | 24601 ft | 380 kts | 273° |
| 2026-05-06 17:38 | 60.12445 | 9.66383 | 25004 ft | 381 kts | 273° |
| 2026-05-06 17:38 | 60.12768 | 9.61090 | 25397 ft | 383 kts | 273° |
| 2026-05-06 17:38 | 60.13090 | 9.55778 | 25804 ft | 384 kts | 272° |
| 2026-05-06 17:39 | 60.13411 | 9.50436 | 26135 ft | 387 kts | 272° |
| 2026-05-06 17:39 | 60.13733 | 9.45028 | 26358 ft | 392 kts | 272° |
| 2026-05-06 17:39 | 60.14056 | 9.39575 | 26698 ft | 394 kts | 272° |
| 2026-05-06 17:39 | 60.14378 | 9.34130 | 27175 ft | 392 kts | 272° |
| 2026-05-06 17:40 | 60.14697 | 9.28690 | 27535 ft | 393 kts | 272° |
| 2026-05-06 17:40 | 60.15014 | 9.23233 | 27899 ft | 394 kts | 271° |
| 2026-05-06 17:40 | 60.15330 | 9.17751 | 27922 ft | 395 kts | 271° |
| 2026-05-06 17:40 | 60.15639 | 9.12347 | 27943 ft | 394 kts | 271° |
| 2026-05-06 17:41 | 60.15950 | 9.06889 | 27955 ft | 393 kts | 271° |
| 2026-05-06 17:41 | 60.16258 | 9.01438 | 27962 ft | 393 kts | 271° |
| 2026-05-06 17:41 | 60.16562 | 8.95994 | 27963 ft | 392 kts | 271° |
| 2026-05-06 17:41 | 60.16865 | 8.90542 | 27974 ft | 392 kts | 271° |
| 2026-05-06 17:42 | 60.17165 | 8.85089 | 27961 ft | 392 kts | 271° |
| 2026-05-06 17:42 | 60.17463 | 8.79646 | 27966 ft | 392 kts | 271° |
| 2026-05-06 17:42 | 60.17758 | 8.74206 | 27973 ft | 392 kts | 271° |
| 2026-05-06 17:42 | 60.18051 | 8.68765 | 27981 ft | 392 kts | 271° |
| 2026-05-06 17:43 | 60.18342 | 8.63322 | 27984 ft | 392 kts | 271° |
| 2026-05-06 17:43 | 60.18631 | 8.57874 | 27983 ft | 392 kts | 271° |
| 2026-05-06 17:43 | 60.18918 | 8.52414 | 27991 ft | 392 kts | 271° |
| 2026-05-06 17:43 | 60.19203 | 8.46959 | 27990 ft | 392 kts | 271° |
| 2026-05-06 17:44 | 60.19486 | 8.41513 | 27992 ft | 392 kts | 271° |
| 2026-05-06 17:44 | 60.19767 | 8.36050 | 27999 ft | 392 kts | 271° |
| 2026-05-06 17:44 | 60.20288 | 8.25148 | 28011 ft | 391 kts | 270° |
| 2026-05-06 17:45 | 60.20615 | 8.14239 | 28015 ft | 391 kts | 269° |
| 2026-05-06 17:45 | 60.20906 | 8.03335 | 28004 ft | 391 kts | 269° |
| 2026-05-06 17:46 | 60.21205 | 7.92410 | 28019 ft | 391 kts | 269° |
| 2026-05-06 17:46 | 60.21504 | 7.81549 | 28010 ft | 391 kts | 269° |
| 2026-05-06 17:47 | 60.21801 | 7.70617 | 28005 ft | 392 kts | 269° |
| 2026-05-06 17:47 | 60.22089 | 7.59672 | 28015 ft | 391 kts | 269° |
| 2026-05-06 17:48 | 60.22368 | 7.48738 | 27945 ft | 392 kts | 269° |
| 2026-05-06 17:48 | 60.22505 | 7.43193 | 27107 ft | 397 kts | 270° |
| 2026-05-06 17:48 | 60.22640 | 7.37679 | 26233 ft | 394 kts | 270° |
| 2026-05-06 17:49 | 60.22771 | 7.32253 | 25370 ft | 392 kts | 270° |
| 2026-05-06 17:49 | 60.22900 | 7.26827 | 24731 ft | 385 kts | 270° |
| 2026-05-06 17:49 | 60.23025 | 7.21476 | 24066 ft | 380 kts | 271° |
| 2026-05-06 17:49 | 60.23153 | 7.16190 | 23351 ft | 376 kts | 272° |
| 2026-05-06 17:50 | 60.23548 | 7.10982 | 22303 ft | 379 kts | 280° |
| 2026-05-06 17:50 | 60.24041 | 7.07528 | 21597 ft | 382 kts | 284° |
| 2026-05-06 17:50 | 60.25124 | 7.00820 | 20470 ft | 378 kts | 284° |
| 2026-05-06 17:50 | 60.25921 | 6.95802 | 19737 ft | 374 kts | 284° |
| 2026-05-06 17:51 | 60.26701 | 6.90834 | 19001 ft | 370 kts | 284° |
| 2026-05-06 17:51 | 60.27467 | 6.85916 | 18259 ft | 367 kts | 285° |
| 2026-05-06 17:51 | 60.27969 | 6.82677 | 17651 ft | 365 kts | 285° |
| 2026-05-06 17:51 | 60.28724 | 6.77787 | 16748 ft | 365 kts | 285° |
| 2026-05-06 17:52 | 60.29473 | 6.72914 | 15992 ft | 363 kts | 285° |
| 2026-05-06 17:52 | 60.30218 | 6.68056 | 15179 ft | 362 kts | 286° |
| 2026-05-06 17:52 | 60.30965 | 6.63175 | 14392 ft | 365 kts | 286° |
| 2026-05-06 17:52 | 60.31709 | 6.58295 | 13690 ft | 363 kts | 287° |
| 2026-05-06 17:53 | 60.32447 | 6.53448 | 13016 ft | 361 kts | 287° |
| 2026-05-06 17:53 | 60.33180 | 6.48619 | 12346 ft | 358 kts | 287° |
| 2026-05-06 17:53 | 60.33905 | 6.43826 | 11726 ft | 355 kts | 287° |
| 2026-05-06 17:53 | 60.34623 | 6.39068 | 11112 ft | 353 kts | 287° |
| 2026-05-06 17:54 | 60.35327 | 6.34394 | 10907 ft | 340 kts | 287° |
| 2026-05-06 17:54 | 60.36001 | 6.29905 | 10744 ft | 327 kts | 287° |
| 2026-05-06 17:54 | 60.36647 | 6.25589 | 10613 ft | 315 kts | 287° |
| 2026-05-06 17:54 | 60.37269 | 6.21423 | 10472 ft | 304 kts | 287° |
| 2026-05-06 17:55 | 60.37860 | 6.17454 | 10348 ft | 294 kts | 287° |
| 2026-05-06 17:55 | 60.38438 | 6.13564 | 10228 ft | 284 kts | 287° |
| 2026-05-06 17:55 | 60.38995 | 6.09805 | 10097 ft | 275 kts | 287° |
| 2026-05-06 17:55 | 60.39536 | 6.06151 | 9946 ft | 267 kts | 286° |
| 2026-05-06 17:56 | 60.40067 | 6.02554 | 9619 ft | 267 kts | 286° |
| 2026-05-06 17:56 | 60.40594 | 5.98968 | 9298 ft | 265 kts | 286° |
| 2026-05-06 17:56 | 60.41115 | 5.95423 | 9047 ft | 262 kts | 286° |
| 2026-05-06 17:56 | 60.41636 | 5.91877 | 8671 ft | 265 kts | 286° |
| 2026-05-06 17:57 | 60.42166 | 5.88256 | 8357 ft | 271 kts | 286° |
| 2026-05-06 17:57 | 60.42710 | 5.84522 | 8010 ft | 280 kts | 286° |
| 2026-05-06 17:57 | 60.43267 | 5.80706 | 7649 ft | 284 kts | 286° |
| 2026-05-06 17:57 | 60.43823 | 5.76877 | 7310 ft | 282 kts | 286° |
| 2026-05-06 17:58 | 60.44376 | 5.73068 | 6960 ft | 281 kts | 286° |
| 2026-05-06 17:58 | 60.44922 | 5.69288 | 6618 ft | 279 kts | 286° |
| 2026-05-06 17:58 | 60.45459 | 5.65570 | 6282 ft | 277 kts | 285° |
| 2026-05-06 17:58 | 60.45996 | 5.61841 | 5943 ft | 277 kts | 286° |
| 2026-05-06 17:59 | 60.46533 | 5.58103 | 5628 ft | 275 kts | 286° |
| 2026-05-06 17:59 | 60.47067 | 5.54377 | 5281 ft | 276 kts | 285° |
| 2026-05-06 17:59 | 60.47599 | 5.50662 | 4999 ft | 272 kts | 286° |
| 2026-05-06 17:59 | 60.48116 | 5.47041 | 4894 ft | 266 kts | 285° |
| 2026-05-06 18:00 | 60.48630 | 5.43445 | 4794 ft | 266 kts | 285° |
| 2026-05-06 18:00 | 60.49141 | 5.39846 | 4658 ft | 262 kts | 285° |
| 2026-05-06 18:00 | 60.49636 | 5.36353 | 4548 ft | 253 kts | 285° |
| 2026-05-06 18:00 | 60.50113 | 5.32978 | 4437 ft | 244 kts | 285° |
| 2026-05-06 18:01 | 60.50532 | 5.29671 | 4338 ft | 240 kts | 276° |
| 2026-05-06 18:01 | 60.50318 | 5.26363 | 4151 ft | 237 kts | 250° |
| 2026-05-06 18:01 | 60.49598 | 5.23389 | 4022 ft | 231 kts | 242° |
| 2026-05-06 18:01 | 60.48813 | 5.20635 | 3974 ft | 223 kts | 241° |
| 2026-05-06 18:02 | 60.47987 | 5.17803 | 3408 ft | 240 kts | 236° |
| 2026-05-06 18:02 | 60.46698 | 5.15745 | 3190 ft | 238 kts | 199° |
| 2026-05-06 18:02 | 60.45085 | 5.15764 | 3063 ft | 233 kts | 164° |
| 2026-05-06 18:02 | 60.43589 | 5.16787 | 2918 ft | 222 kts | 166° |
| 2026-05-06 18:03 | 60.42121 | 5.17503 | 2657 ft | 214 kts | 171° |
| 2026-05-06 18:03 | 60.40684 | 5.18011 | 2352 ft | 204 kts | 173° |
| 2026-05-06 18:03 | 60.39312 | 5.18463 | 2059 ft | 197 kts | 173° |
| 2026-05-06 18:03 | 60.38005 | 5.18902 | 1796 ft | 182 kts | 173° |
| 2026-05-06 18:04 | 60.36805 | 5.19304 | 1541 ft | 167 kts | 174° |
| 2026-05-06 18:04 | 60.35705 | 5.19675 | 1362 ft | 158 kts | 174° |
| 2026-05-06 18:04 | 60.34623 | 5.20045 | 1084 ft | 155 kts | 173° |
| 2026-05-06 18:04 | 60.33575 | 5.20418 | 839 ft | 155 kts | 172° |
| 2026-05-06 18:05 | 60.32517 | 5.20759 | 605 ft | 152 kts | 173° |
| 2026-05-06 18:05 | 60.31487 | 5.21098 | 400 ft | 146 kts | 171° |
| 2026-05-06 18:05 | 60.30507 | 5.21429 | 220 ft | 144 kts | 171° |
| 2026-05-06 18:05 | 60.29592 | 5.21745 | 148 ft | 110 kts | 169° |
| 2026-05-06 18:06 | 60.29050 | 5.21925 | 160 ft | 40 kts | 171° |
| 2026-05-06 18:06 | 60.28918 | 5.22056 | 159 ft | 18 kts | 94° |
| 2026-05-06 18:06 | 60.28921 | 5.22156 | 158 ft | 0 kts | 88° |
| 2026-05-06 18:07 | 60.28925 | 5.22211 | 159 ft | 4 kts | 74° |
| 2026-05-06 18:08 | 60.28950 | 5.22253 | 160 ft | 4 kts | 21° |
| 2026-05-06 18:08 | 60.28978 | 5.22256 | 161 ft | 6 kts | 356° |
| 2026-05-06 18:08 | 60.28999 | 5.22252 | 161 ft | 1 kts | 352° |
| 2026-05-06 18:08 | 60.29003 | 5.22251 | 161 ft | 0 kts | 352° |
| 2026-05-06 18:09 | 60.29013 | 5.22248 | 161 ft | 5 kts | 352° |
| 2026-05-06 18:09 | 60.29060 | 5.22246 | 162 ft | 7 kts | 25° |
| 2026-05-06 18:10 | 60.29071 | 5.22333 | 165 ft | 7 kts | 120° |
| 2026-05-06 18:10 | 60.29025 | 5.22366 | 165 ft | 8 kts | 169° |
| 2026-05-06 18:10 | 60.28962 | 5.22377 | 165 ft | 9 kts | 188° |
| 2026-05-06 18:10 | 60.28944 | 5.22360 | 164 ft | 2 kts | 215° |
| 2026-05-06 18:11 | 60.28924 | 5.22314 | 162 ft | 10 kts | 220° |
| 2026-05-06 18:11 | 60.28864 | 5.22300 | 161 ft | 2 kts | 173° |
| 2026-05-06 18:11 | 60.28855 | 5.22303 | 161 ft | 0 kts | 172° |
| 2026-05-06 18:11 | 60.28838 | 5.22308 | 161 ft | 6 kts | 171° |
| 2026-05-06 18:12 | 60.28815 | 5.22317 | 161 ft | 1 kts | 162° |
| 2026-05-06 18:12 | 60.28808 | 5.22344 | 162 ft | 3 kts | 106° |